sensor_id;sensor_type;location;lat;lon;timestamp;P1;durP1;ratioP1;P2;durP2;ratioP2
6406;SDS011;3236;51.022;6.818;2023-06-24T00:01:33;11.35;;;8.52;;
6406;SDS011;3236;51.022;6.818;2023-06-24T00:04:03;12.32;;;8.02;;
6406;SDS011;3236;51.022;6.818;2023-06-24T00:06:30;11.65;;;8.05;;
6406;SDS011;3236;51.022;6.818;2023-06-24T00:09:00;10.85;;;7.78;;
6406;SDS011;3236;51.022;6.818;2023-06-24T00:11:29;9.98;;;7.88;;
6406;SDS011;3236;51.022;6.818;2023-06-24T00:13:56;15.50;;;8.68;;
6406;SDS011;3236;51.022;6.818;2023-06-24T00:16:23;11.93;;;7.85;;
6406;SDS011;3236;51.022;6.818;2023-06-24T00:18:53;13.50;;;8.13;;
6406;SDS011;3236;51.022;6.818;2023-06-24T00:21:23;12.30;;;8.20;;
6406;SDS011;3236;51.022;6.818;2023-06-24T00:26:22;10.15;;;8.05;;
6406;SDS011;3236;51.022;6.818;2023-06-24T00:28:51;10.40;;;8.93;;
6406;SDS011;3236;51.022;6.818;2023-06-24T00:31:19;14.38;;;9.30;;
6406;SDS011;3236;51.022;6.818;2023-06-24T00:33:47;13.05;;;8.80;;
6406;SDS011;3236;51.022;6.818;2023-06-24T00:36:14;12.40;;;9.38;;
6406;SDS011;3236;51.022;6.818;2023-06-24T00:38:41;14.60;;;8.60;;
6406;SDS011;3236;51.022;6.818;2023-06-24T00:41:09;13.52;;;9.10;;
6406;SDS011;3236;51.022;6.818;2023-06-24T00:43:36;17.98;;;9.82;;
6406;SDS011;3236;51.022;6.818;2023-06-24T00:46:05;13.35;;;9.30;;
6406;SDS011;3236;51.022;6.818;2023-06-24T00:48:36;15.13;;;9.32;;
6406;SDS011;3236;51.022;6.818;2023-06-24T00:51:03;14.88;;;9.55;;
6406;SDS011;3236;51.022;6.818;2023-06-24T00:53:33;15.50;;;10.20;;
6406;SDS011;3236;51.022;6.818;2023-06-24T00:56:05;15.20;;;8.70;;
6406;SDS011;3236;51.022;6.818;2023-06-24T00:58:33;17.02;;;9.88;;
6406;SDS011;3236;51.022;6.818;2023-06-24T01:01:05;14.07;;;8.88;;
6406;SDS011;3236;51.022;6.818;2023-06-24T01:03:34;16.90;;;9.15;;
6406;SDS011;3236;51.022;6.818;2023-06-24T01:06:03;13.02;;;8.50;;
6406;SDS011;3236;51.022;6.818;2023-06-24T01:08:30;12.77;;;9.68;;
6406;SDS011;3236;51.022;6.818;2023-06-24T01:10:57;14.50;;;9.43;;
6406;SDS011;3236;51.022;6.818;2023-06-24T01:13:24;15.90;;;9.63;;
6406;SDS011;3236;51.022;6.818;2023-06-24T01:15:51;15.20;;;10.20;;
6406;SDS011;3236;51.022;6.818;2023-06-24T01:18:24;16.27;;;11.13;;
6406;SDS011;3236;51.022;6.818;2023-06-24T01:21:03;16.30;;;10.20;;
6406;SDS011;3236;51.022;6.818;2023-06-24T01:27:04;17.13;;;9.75;;
6406;SDS011;3236;51.022;6.818;2023-06-24T01:30:05;15.75;;;9.98;;
6406;SDS011;3236;51.022;6.818;2023-06-24T01:32:50;11.93;;;9.05;;
6406;SDS011;3236;51.022;6.818;2023-06-24T01:35:23;14.02;;;8.73;;
6406;SDS011;3236;51.022;6.818;2023-06-24T01:37:55;15.10;;;9.90;;
6406;SDS011;3236;51.022;6.818;2023-06-24T01:40:26;16.25;;;9.88;;
6406;SDS011;3236;51.022;6.818;2023-06-24T01:42:54;18.17;;;9.35;;
6406;SDS011;3236;51.022;6.818;2023-06-24T01:45:25;18.67;;;9.85;;
6406;SDS011;3236;51.022;6.818;2023-06-24T01:47:59;18.52;;;9.77;;
6406;SDS011;3236;51.022;6.818;2023-06-24T01:50:29;14.18;;;9.52;;
6406;SDS011;3236;51.022;6.818;2023-06-24T01:52:59;19.35;;;9.75;;
6406;SDS011;3236;51.022;6.818;2023-06-24T01:55:30;14.95;;;9.52;;
6406;SDS011;3236;51.022;6.818;2023-06-24T01:58:03;18.95;;;10.27;;
6406;SDS011;3236;51.022;6.818;2023-06-24T02:00:34;21.25;;;10.75;;
6406;SDS011;3236;51.022;6.818;2023-06-24T02:03:05;21.38;;;10.52;;
6406;SDS011;3236;51.022;6.818;2023-06-24T02:05:34;14.52;;;10.27;;
6406;SDS011;3236;51.022;6.818;2023-06-24T02:08:07;16.93;;;10.60;;
6406;SDS011;3236;51.022;6.818;2023-06-24T02:10:37;20.05;;;10.63;;
6406;SDS011;3236;51.022;6.818;2023-06-24T02:13:05;17.13;;;10.82;;
6406;SDS011;3236;51.022;6.818;2023-06-24T02:15:35;16.52;;;10.07;;
6406;SDS011;3236;51.022;6.818;2023-06-24T02:18:05;19.13;;;10.07;;
6406;SDS011;3236;51.022;6.818;2023-06-24T02:20:34;20.98;;;9.98;;
6406;SDS011;3236;51.022;6.818;2023-06-24T02:23:04;16.08;;;10.63;;
6406;SDS011;3236;51.022;6.818;2023-06-24T02:25:33;21.65;;;10.55;;
6406;SDS011;3236;51.022;6.818;2023-06-24T02:28:04;17.97;;;9.07;;
6406;SDS011;3236;51.022;6.818;2023-06-24T02:30:32;27.80;;;10.25;;
6406;SDS011;3236;51.022;6.818;2023-06-24T02:33:01;15.90;;;9.63;;
6406;SDS011;3236;51.022;6.818;2023-06-24T02:35:30;20.98;;;10.13;;
6406;SDS011;3236;51.022;6.818;2023-06-24T02:37:57;16.75;;;11.20;;
6406;SDS011;3236;51.022;6.818;2023-06-24T02:40:24;18.55;;;10.40;;
6406;SDS011;3236;51.022;6.818;2023-06-24T02:42:52;15.40;;;10.75;;
6406;SDS011;3236;51.022;6.818;2023-06-24T02:45:19;18.25;;;11.75;;
6406;SDS011;3236;51.022;6.818;2023-06-24T02:47:47;19.67;;;11.40;;
6406;SDS011;3236;51.022;6.818;2023-06-24T02:50:16;20.15;;;11.27;;
6406;SDS011;3236;51.022;6.818;2023-06-24T02:52:45;17.83;;;11.30;;
6406;SDS011;3236;51.022;6.818;2023-06-24T02:55:14;20.92;;;11.38;;
6406;SDS011;3236;51.022;6.818;2023-06-24T02:57:41;28.38;;;12.20;;
6406;SDS011;3236;51.022;6.818;2023-06-24T03:00:09;23.95;;;13.00;;
6406;SDS011;3236;51.022;6.818;2023-06-24T03:02:39;25.63;;;12.48;;
6406;SDS011;3236;51.022;6.818;2023-06-24T03:05:08;22.65;;;12.52;;
6406;SDS011;3236;51.022;6.818;2023-06-24T03:07:36;21.58;;;12.75;;
6406;SDS011;3236;51.022;6.818;2023-06-24T03:10:05;25.75;;;14.05;;
6406;SDS011;3236;51.022;6.818;2023-06-24T03:12:33;32.30;;;13.68;;
6406;SDS011;3236;51.022;6.818;2023-06-24T03:15:03;22.90;;;12.50;;
6406;SDS011;3236;51.022;6.818;2023-06-24T03:17:31;33.08;;;14.57;;
6406;SDS011;3236;51.022;6.818;2023-06-24T03:20:01;24.00;;;13.30;;
6406;SDS011;3236;51.022;6.818;2023-06-24T03:22:30;26.30;;;14.15;;
6406;SDS011;3236;51.022;6.818;2023-06-24T03:24:58;25.38;;;14.32;;
6406;SDS011;3236;51.022;6.818;2023-06-24T03:27:26;24.67;;;14.48;;
6406;SDS011;3236;51.022;6.818;2023-06-24T03:29:53;24.45;;;13.88;;
6406;SDS011;3236;51.022;6.818;2023-06-24T03:32:20;22.60;;;13.85;;
6406;SDS011;3236;51.022;6.818;2023-06-24T03:34:48;23.85;;;14.30;;
6406;SDS011;3236;51.022;6.818;2023-06-24T03:37:15;24.60;;;15.48;;
6406;SDS011;3236;51.022;6.818;2023-06-24T03:39:42;23.92;;;15.57;;
6406;SDS011;3236;51.022;6.818;2023-06-24T03:42:10;22.10;;;14.63;;
6406;SDS011;3236;51.022;6.818;2023-06-24T03:44:38;20.75;;;14.93;;
6406;SDS011;3236;51.022;6.818;2023-06-24T03:47:06;19.73;;;14.00;;
6406;SDS011;3236;51.022;6.818;2023-06-24T03:49:33;21.98;;;14.23;;
6406;SDS011;3236;51.022;6.818;2023-06-24T03:52:00;24.15;;;14.45;;
6406;SDS011;3236;51.022;6.818;2023-06-24T03:54:28;26.58;;;15.80;;
6406;SDS011;3236;51.022;6.818;2023-06-24T03:56:55;25.60;;;15.13;;
6406;SDS011;3236;51.022;6.818;2023-06-24T03:59:25;26.15;;;15.75;;
6406;SDS011;3236;51.022;6.818;2023-06-24T04:01:54;19.83;;;14.52;;
6406;SDS011;3236;51.022;6.818;2023-06-24T04:04:22;22.42;;;13.45;;
6406;SDS011;3236;51.022;6.818;2023-06-24T04:06:49;24.52;;;14.40;;
6406;SDS011;3236;51.022;6.818;2023-06-24T04:09:16;19.58;;;13.55;;
6406;SDS011;3236;51.022;6.818;2023-06-24T04:11:43;18.55;;;14.00;;
6406;SDS011;3236;51.022;6.818;2023-06-24T04:14:10;23.42;;;14.13;;
6406;SDS011;3236;51.022;6.818;2023-06-24T04:16:37;22.70;;;14.55;;
6406;SDS011;3236;51.022;6.818;2023-06-24T04:19:08;17.90;;;14.00;;
6406;SDS011;3236;51.022;6.818;2023-06-24T04:21:36;24.40;;;15.40;;
6406;SDS011;3236;51.022;6.818;2023-06-24T04:24:03;25.58;;;14.93;;
6406;SDS011;3236;51.022;6.818;2023-06-24T04:26:37;25.65;;;16.20;;
6406;SDS011;3236;51.022;6.818;2023-06-24T04:29:04;21.25;;;15.85;;
6406;SDS011;3236;51.022;6.818;2023-06-24T04:31:31;22.50;;;15.27;;
6406;SDS011;3236;51.022;6.818;2023-06-24T04:33:58;23.20;;;14.77;;
6406;SDS011;3236;51.022;6.818;2023-06-24T04:36:27;25.17;;;15.25;;
6406;SDS011;3236;51.022;6.818;2023-06-24T04:38:54;28.90;;;16.13;;
6406;SDS011;3236;51.022;6.818;2023-06-24T04:41:21;24.88;;;15.80;;
6406;SDS011;3236;51.022;6.818;2023-06-24T04:43:49;26.10;;;15.15;;
6406;SDS011;3236;51.022;6.818;2023-06-24T04:46:16;22.00;;;15.48;;
6406;SDS011;3236;51.022;6.818;2023-06-24T04:48:43;23.92;;;14.82;;
6406;SDS011;3236;51.022;6.818;2023-06-24T04:51:10;20.15;;;14.18;;
6406;SDS011;3236;51.022;6.818;2023-06-24T04:53:39;19.27;;;13.75;;
6406;SDS011;3236;51.022;6.818;2023-06-24T04:56:06;26.30;;;14.00;;
6406;SDS011;3236;51.022;6.818;2023-06-24T04:58:33;25.15;;;14.52;;
6406;SDS011;3236;51.022;6.818;2023-06-24T05:01:02;24.70;;;14.10;;
6406;SDS011;3236;51.022;6.818;2023-06-24T05:03:32;20.88;;;13.40;;
6406;SDS011;3236;51.022;6.818;2023-06-24T05:05:59;20.60;;;13.50;;
6406;SDS011;3236;51.022;6.818;2023-06-24T05:08:27;16.80;;;12.60;;
6406;SDS011;3236;51.022;6.818;2023-06-24T05:10:56;17.75;;;12.15;;
6406;SDS011;3236;51.022;6.818;2023-06-24T05:13:23;19.25;;;11.77;;
6406;SDS011;3236;51.022;6.818;2023-06-24T05:15:50;20.23;;;12.38;;
6406;SDS011;3236;51.022;6.818;2023-06-24T05:18:17;17.92;;;11.57;;
6406;SDS011;3236;51.022;6.818;2023-06-24T05:20:44;20.20;;;12.45;;
6406;SDS011;3236;51.022;6.818;2023-06-24T05:23:11;17.17;;;11.68;;
6406;SDS011;3236;51.022;6.818;2023-06-24T05:25:38;21.58;;;12.05;;
6406;SDS011;3236;51.022;6.818;2023-06-24T05:28:07;18.13;;;11.07;;
6406;SDS011;3236;51.022;6.818;2023-06-24T05:30:34;18.25;;;11.80;;
6406;SDS011;3236;51.022;6.818;2023-06-24T05:33:01;15.90;;;11.45;;
6406;SDS011;3236;51.022;6.818;2023-06-24T05:35:28;21.75;;;11.18;;
6406;SDS011;3236;51.022;6.818;2023-06-24T05:37:55;18.00;;;11.68;;
6406;SDS011;3236;51.022;6.818;2023-06-24T05:40:22;15.48;;;10.38;;
6406;SDS011;3236;51.022;6.818;2023-06-24T05:42:49;20.80;;;11.15;;
6406;SDS011;3236;51.022;6.818;2023-06-24T05:45:18;11.52;;;9.90;;
6406;SDS011;3236;51.022;6.818;2023-06-24T05:47:45;15.27;;;11.45;;
6406;SDS011;3236;51.022;6.818;2023-06-24T05:50:13;18.90;;;9.95;;
6406;SDS011;3236;51.022;6.818;2023-06-24T05:52:43;16.40;;;10.13;;
6406;SDS011;3236;51.022;6.818;2023-06-24T05:55:10;21.67;;;10.80;;
6406;SDS011;3236;51.022;6.818;2023-06-24T05:57:38;15.10;;;9.10;;
6406;SDS011;3236;51.022;6.818;2023-06-24T06:00:06;20.15;;;10.40;;
6406;SDS011;3236;51.022;6.818;2023-06-24T06:02:35;18.80;;;9.65;;
6406;SDS011;3236;51.022;6.818;2023-06-24T06:05:02;13.95;;;9.45;;
6406;SDS011;3236;51.022;6.818;2023-06-24T06:07:31;17.83;;;11.27;;
6406;SDS011;3236;51.022;6.818;2023-06-24T06:09:58;13.95;;;9.85;;
6406;SDS011;3236;51.022;6.818;2023-06-24T06:12:25;16.30;;;10.68;;
6406;SDS011;3236;51.022;6.818;2023-06-24T06:14:52;21.67;;;9.73;;
6406;SDS011;3236;51.022;6.818;2023-06-24T06:17:20;16.48;;;9.32;;
6406;SDS011;3236;51.022;6.818;2023-06-24T06:19:48;16.35;;;9.50;;
6406;SDS011;3236;51.022;6.818;2023-06-24T06:22:15;12.75;;;8.90;;
6406;SDS011;3236;51.022;6.818;2023-06-24T06:24:43;16.38;;;10.45;;
6406;SDS011;3236;51.022;6.818;2023-06-24T06:27:10;17.55;;;8.25;;
6406;SDS011;3236;51.022;6.818;2023-06-24T06:29:37;19.33;;;9.38;;
6406;SDS011;3236;51.022;6.818;2023-06-24T06:32:04;15.80;;;9.15;;
6406;SDS011;3236;51.022;6.818;2023-06-24T06:34:44;16.75;;;9.05;;
6406;SDS011;3236;51.022;6.818;2023-06-24T06:37:12;12.75;;;7.13;;
6406;SDS011;3236;51.022;6.818;2023-06-24T06:39:39;10.43;;;7.10;;
6406;SDS011;3236;51.022;6.818;2023-06-24T06:42:07;13.23;;;6.97;;
6406;SDS011;3236;51.022;6.818;2023-06-24T06:44:37;12.75;;;7.22;;
6406;SDS011;3236;51.022;6.818;2023-06-24T06:47:10;8.98;;;6.38;;
6406;SDS011;3236;51.022;6.818;2023-06-24T06:49:37;15.32;;;6.72;;
6406;SDS011;3236;51.022;6.818;2023-06-24T06:52:05;13.90;;;7.47;;
6406;SDS011;3236;51.022;6.818;2023-06-24T06:54:34;11.43;;;6.50;;
6406;SDS011;3236;51.022;6.818;2023-06-24T06:57:01;11.60;;;6.45;;
6406;SDS011;3236;51.022;6.818;2023-06-24T06:59:29;14.93;;;6.85;;
6406;SDS011;3236;51.022;6.818;2023-06-24T07:01:59;13.38;;;6.22;;
6406;SDS011;3236;51.022;6.818;2023-06-24T07:04:27;9.95;;;6.70;;
6406;SDS011;3236;51.022;6.818;2023-06-24T07:06:54;15.10;;;8.10;;
6406;SDS011;3236;51.022;6.818;2023-06-24T07:09:24;8.88;;;5.95;;
6406;SDS011;3236;51.022;6.818;2023-06-24T07:11:52;13.02;;;6.47;;
6406;SDS011;3236;51.022;6.818;2023-06-24T07:14:25;14.95;;;6.55;;
6406;SDS011;3236;51.022;6.818;2023-06-24T07:16:52;11.60;;;6.55;;
6406;SDS011;3236;51.022;6.818;2023-06-24T07:19:20;11.45;;;6.90;;
6406;SDS011;3236;51.022;6.818;2023-06-24T07:21:47;11.45;;;7.20;;
6406;SDS011;3236;51.022;6.818;2023-06-24T07:24:14;9.35;;;6.45;;
6406;SDS011;3236;51.022;6.818;2023-06-24T07:26:41;11.35;;;8.00;;
6406;SDS011;3236;51.022;6.818;2023-06-24T07:29:10;12.77;;;6.70;;
6406;SDS011;3236;51.022;6.818;2023-06-24T07:31:37;11.70;;;6.45;;
6406;SDS011;3236;51.022;6.818;2023-06-24T07:34:04;10.40;;;7.05;;
6406;SDS011;3236;51.022;6.818;2023-06-24T07:36:31;10.85;;;6.03;;
6406;SDS011;3236;51.022;6.818;2023-06-24T07:38:58;15.02;;;7.28;;
6406;SDS011;3236;51.022;6.818;2023-06-24T07:41:26;11.27;;;6.85;;
6406;SDS011;3236;51.022;6.818;2023-06-24T07:43:53;11.10;;;6.05;;
6406;SDS011;3236;51.022;6.818;2023-06-24T07:46:25;12.50;;;7.00;;
6406;SDS011;3236;51.022;6.818;2023-06-24T07:48:53;10.82;;;6.85;;
6406;SDS011;3236;51.022;6.818;2023-06-24T07:51:20;10.50;;;6.15;;
6406;SDS011;3236;51.022;6.818;2023-06-24T07:53:47;9.93;;;6.32;;
6406;SDS011;3236;51.022;6.818;2023-06-24T07:56:14;10.45;;;5.95;;
6406;SDS011;3236;51.022;6.818;2023-06-24T07:58:42;14.48;;;6.38;;
6406;SDS011;3236;51.022;6.818;2023-06-24T08:01:15;12.18;;;6.93;;
6406;SDS011;3236;51.022;6.818;2023-06-24T08:03:45;14.02;;;6.35;;
6406;SDS011;3236;51.022;6.818;2023-06-24T08:06:12;8.73;;;5.93;;
6406;SDS011;3236;51.022;6.818;2023-06-24T08:08:39;15.43;;;5.75;;
6406;SDS011;3236;51.022;6.818;2023-06-24T08:11:06;9.73;;;5.65;;
6406;SDS011;3236;51.022;6.818;2023-06-24T08:13:34;9.05;;;5.50;;
6406;SDS011;3236;51.022;6.818;2023-06-24T08:16:01;11.60;;;6.40;;
6406;SDS011;3236;51.022;6.818;2023-06-24T08:18:28;9.55;;;5.55;;
6406;SDS011;3236;51.022;6.818;2023-06-24T08:20:56;12.45;;;5.72;;
6406;SDS011;3236;51.022;6.818;2023-06-24T08:23:23;9.18;;;5.55;;
6406;SDS011;3236;51.022;6.818;2023-06-24T08:25:51;9.43;;;5.25;;
6406;SDS011;3236;51.022;6.818;2023-06-24T08:28:18;10.23;;;5.85;;
6406;SDS011;3236;51.022;6.818;2023-06-24T08:30:45;9.43;;;5.22;;
6406;SDS011;3236;51.022;6.818;2023-06-24T08:33:12;8.57;;;5.93;;
6406;SDS011;3236;51.022;6.818;2023-06-24T08:35:39;8.40;;;5.45;;
6406;SDS011;3236;51.022;6.818;2023-06-24T08:38:08;13.32;;;6.00;;
6406;SDS011;3236;51.022;6.818;2023-06-24T08:40:35;8.45;;;5.72;;
6406;SDS011;3236;51.022;6.818;2023-06-24T08:43:05;12.02;;;5.95;;
6406;SDS011;3236;51.022;6.818;2023-06-24T08:45:32;11.05;;;5.40;;
6406;SDS011;3236;51.022;6.818;2023-06-24T08:47:59;8.98;;;5.57;;
6406;SDS011;3236;51.022;6.818;2023-06-24T08:50:31;10.10;;;5.50;;
6406;SDS011;3236;51.022;6.818;2023-06-24T08:53:00;8.38;;;5.75;;
6406;SDS011;3236;51.022;6.818;2023-06-24T08:55:33;11.52;;;7.35;;
6406;SDS011;3236;51.022;6.818;2023-06-24T08:58:06;14.05;;;6.97;;
6406;SDS011;3236;51.022;6.818;2023-06-24T09:00:33;14.38;;;7.57;;
6406;SDS011;3236;51.022;6.818;2023-06-24T09:03:00;11.02;;;7.18;;
6406;SDS011;3236;51.022;6.818;2023-06-24T09:05:28;19.15;;;9.82;;
6406;SDS011;3236;51.022;6.818;2023-06-24T09:07:56;18.10;;;8.05;;
6406;SDS011;3236;51.022;6.818;2023-06-24T09:10:29;14.65;;;7.97;;
6406;SDS011;3236;51.022;6.818;2023-06-24T09:12:59;14.23;;;7.82;;
6406;SDS011;3236;51.022;6.818;2023-06-24T09:15:29;13.95;;;7.90;;
6406;SDS011;3236;51.022;6.818;2023-06-24T09:17:57;16.80;;;8.43;;
6406;SDS011;3236;51.022;6.818;2023-06-24T09:20:25;14.20;;;7.57;;
6406;SDS011;3236;51.022;6.818;2023-06-24T09:22:57;16.50;;;6.93;;
6406;SDS011;3236;51.022;6.818;2023-06-24T09:25:25;11.65;;;7.85;;
6406;SDS011;3236;51.022;6.818;2023-06-24T09:27:52;12.95;;;8.38;;
6406;SDS011;3236;51.022;6.818;2023-06-24T09:30:23;11.57;;;7.20;;
6406;SDS011;3236;51.022;6.818;2023-06-24T09:32:50;14.80;;;7.68;;
6406;SDS011;3236;51.022;6.818;2023-06-24T09:35:19;12.43;;;8.48;;
6406;SDS011;3236;51.022;6.818;2023-06-24T09:37:50;14.05;;;7.38;;
6406;SDS011;3236;51.022;6.818;2023-06-24T09:40:21;12.85;;;7.82;;
6406;SDS011;3236;51.022;6.818;2023-06-24T09:42:50;13.00;;;8.52;;
6406;SDS011;3236;51.022;6.818;2023-06-24T09:45:23;12.43;;;7.03;;
6406;SDS011;3236;51.022;6.818;2023-06-24T09:47:51;9.70;;;6.22;;
6406;SDS011;3236;51.022;6.818;2023-06-24T09:50:19;9.50;;;5.97;;
6406;SDS011;3236;51.022;6.818;2023-06-24T09:52:50;9.40;;;5.90;;
6406;SDS011;3236;51.022;6.818;2023-06-24T09:55:18;10.43;;;5.82;;
6406;SDS011;3236;51.022;6.818;2023-06-24T09:57:47;7.55;;;5.32;;
6406;SDS011;3236;51.022;6.818;2023-06-24T10:00:17;15.85;;;5.65;;
6406;SDS011;3236;51.022;6.818;2023-06-24T10:02:47;9.15;;;6.40;;
6406;SDS011;3236;51.022;6.818;2023-06-24T10:05:15;7.80;;;4.22;;
6406;SDS011;3236;51.022;6.818;2023-06-24T10:07:43;5.45;;;4.43;;
6406;SDS011;3236;51.022;6.818;2023-06-24T10:10:10;6.05;;;4.00;;
6406;SDS011;3236;51.022;6.818;2023-06-24T10:12:40;10.38;;;4.78;;
6406;SDS011;3236;51.022;6.818;2023-06-24T10:15:10;8.93;;;4.57;;
6406;SDS011;3236;51.022;6.818;2023-06-24T10:17:37;10.33;;;6.30;;
6406;SDS011;3236;51.022;6.818;2023-06-24T10:20:07;9.05;;;4.32;;
6406;SDS011;3236;51.022;6.818;2023-06-24T10:22:34;6.15;;;3.97;;
6406;SDS011;3236;51.022;6.818;2023-06-24T10:25:04;8.20;;;4.22;;
6406;SDS011;3236;51.022;6.818;2023-06-24T10:27:39;7.40;;;4.38;;
6406;SDS011;3236;51.022;6.818;2023-06-24T10:30:07;7.95;;;4.30;;
6406;SDS011;3236;51.022;6.818;2023-06-24T10:32:42;6.22;;;4.03;;
6406;SDS011;3236;51.022;6.818;2023-06-24T10:35:22;9.13;;;4.65;;
6406;SDS011;3236;51.022;6.818;2023-06-24T10:37:55;8.35;;;4.38;;
6406;SDS011;3236;51.022;6.818;2023-06-24T10:40:35;6.82;;;3.53;;
6406;SDS011;3236;51.022;6.818;2023-06-24T10:43:22;5.55;;;3.78;;
6406;SDS011;3236;51.022;6.818;2023-06-24T10:45:54;10.75;;;4.80;;
6406;SDS011;3236;51.022;6.818;2023-06-24T10:48:25;6.65;;;3.90;;
6406;SDS011;3236;51.022;6.818;2023-06-24T10:50:53;8.30;;;4.25;;
6406;SDS011;3236;51.022;6.818;2023-06-24T10:53:21;5.45;;;3.75;;
6406;SDS011;3236;51.022;6.818;2023-06-24T10:55:49;5.05;;;3.50;;
6406;SDS011;3236;51.022;6.818;2023-06-24T10:58:16;7.20;;;4.10;;
6406;SDS011;3236;51.022;6.818;2023-06-24T11:00:43;6.38;;;2.92;;
6406;SDS011;3236;51.022;6.818;2023-06-24T11:03:12;4.85;;;3.60;;
6406;SDS011;3236;51.022;6.818;2023-06-24T11:05:40;4.97;;;3.30;;
6406;SDS011;3236;51.022;6.818;2023-06-24T11:08:09;5.32;;;3.72;;
6406;SDS011;3236;51.022;6.818;2023-06-24T11:10:43;6.13;;;3.85;;
6406;SDS011;3236;51.022;6.818;2023-06-24T11:13:11;4.47;;;3.90;;
6406;SDS011;3236;51.022;6.818;2023-06-24T11:15:38;5.43;;;4.15;;
6406;SDS011;3236;51.022;6.818;2023-06-24T11:18:07;7.15;;;3.53;;
6406;SDS011;3236;51.022;6.818;2023-06-24T11:20:36;6.45;;;3.88;;
6406;SDS011;3236;51.022;6.818;2023-06-24T11:23:06;6.13;;;4.22;;
6406;SDS011;3236;51.022;6.818;2023-06-24T11:25:42;8.02;;;4.28;;
6406;SDS011;3236;51.022;6.818;2023-06-24T11:28:13;5.75;;;4.22;;
6406;SDS011;3236;51.022;6.818;2023-06-24T11:30:41;4.25;;;3.80;;
6406;SDS011;3236;51.022;6.818;2023-06-24T11:33:07;7.80;;;3.88;;
6406;SDS011;3236;51.022;6.818;2023-06-24T11:35:34;5.03;;;3.28;;
6406;SDS011;3236;51.022;6.818;2023-06-24T11:38:02;6.22;;;3.92;;
6406;SDS011;3236;51.022;6.818;2023-06-24T11:40:33;5.90;;;4.30;;
6406;SDS011;3236;51.022;6.818;2023-06-24T11:45:29;6.78;;;3.50;;
6406;SDS011;3236;51.022;6.818;2023-06-24T11:48:02;5.88;;;3.42;;
6406;SDS011;3236;51.022;6.818;2023-06-24T11:50:33;9.25;;;3.80;;
6406;SDS011;3236;51.022;6.818;2023-06-24T11:53:06;4.28;;;3.50;;
6406;SDS011;3236;51.022;6.818;2023-06-24T11:55:33;5.65;;;3.80;;
6406;SDS011;3236;51.022;6.818;2023-06-24T11:58:02;5.53;;;3.83;;
6406;SDS011;3236;51.022;6.818;2023-06-24T12:00:30;6.85;;;3.85;;
6406;SDS011;3236;51.022;6.818;2023-06-24T12:02:58;6.53;;;3.13;;
6406;SDS011;3236;51.022;6.818;2023-06-24T12:05:27;4.95;;;3.30;;
6406;SDS011;3236;51.022;6.818;2023-06-24T12:07:55;9.43;;;4.25;;
6406;SDS011;3236;51.022;6.818;2023-06-24T12:10:26;5.13;;;3.63;;
6406;SDS011;3236;51.022;6.818;2023-06-24T12:12:55;4.45;;;3.75;;
6406;SDS011;3236;51.022;6.818;2023-06-24T12:15:24;7.65;;;4.55;;
6406;SDS011;3236;51.022;6.818;2023-06-24T12:17:52;7.00;;;4.63;;
6406;SDS011;3236;51.022;6.818;2023-06-24T12:20:19;6.38;;;4.43;;
6406;SDS011;3236;51.022;6.818;2023-06-24T12:22:47;8.50;;;3.58;;
6406;SDS011;3236;51.022;6.818;2023-06-24T12:25:15;6.50;;;3.47;;
6406;SDS011;3236;51.022;6.818;2023-06-24T12:27:43;6.35;;;4.10;;
6406;SDS011;3236;51.022;6.818;2023-06-24T12:30:10;6.35;;;4.35;;
6406;SDS011;3236;51.022;6.818;2023-06-24T12:32:39;8.02;;;3.95;;
6406;SDS011;3236;51.022;6.818;2023-06-24T12:35:07;9.30;;;4.32;;
6406;SDS011;3236;51.022;6.818;2023-06-24T12:37:35;6.32;;;4.18;;
6406;SDS011;3236;51.022;6.818;2023-06-24T12:40:03;7.95;;;3.67;;
6406;SDS011;3236;51.022;6.818;2023-06-24T12:42:30;6.53;;;3.35;;
6406;SDS011;3236;51.022;6.818;2023-06-24T12:45:00;7.28;;;3.70;;
6406;SDS011;3236;51.022;6.818;2023-06-24T12:47:27;7.22;;;4.63;;
6406;SDS011;3236;51.022;6.818;2023-06-24T12:49:56;5.00;;;3.53;;
6406;SDS011;3236;51.022;6.818;2023-06-24T12:52:26;4.53;;;3.28;;
6406;SDS011;3236;51.022;6.818;2023-06-24T12:54:53;4.28;;;3.80;;
6406;SDS011;3236;51.022;6.818;2023-06-24T12:57:20;7.03;;;4.00;;
6406;SDS011;3236;51.022;6.818;2023-06-24T12:59:50;4.72;;;3.83;;
6406;SDS011;3236;51.022;6.818;2023-06-24T13:02:17;5.55;;;3.53;;
6406;SDS011;3236;51.022;6.818;2023-06-24T13:04:44;5.28;;;3.15;;
6406;SDS011;3236;51.022;6.818;2023-06-24T13:07:14;6.63;;;3.22;;
6406;SDS011;3236;51.022;6.818;2023-06-24T13:09:41;5.03;;;2.95;;
6406;SDS011;3236;51.022;6.818;2023-06-24T13:12:08;5.00;;;3.40;;
6406;SDS011;3236;51.022;6.818;2023-06-24T13:14:38;5.47;;;3.13;;
6406;SDS011;3236;51.022;6.818;2023-06-24T13:17:05;5.60;;;3.60;;
6406;SDS011;3236;51.022;6.818;2023-06-24T13:19:32;4.50;;;2.80;;
6406;SDS011;3236;51.022;6.818;2023-06-24T13:21:59;6.70;;;2.72;;
6406;SDS011;3236;51.022;6.818;2023-06-24T13:24:28;4.85;;;2.88;;
6406;SDS011;3236;51.022;6.818;2023-06-24T13:26:55;5.45;;;2.75;;
6406;SDS011;3236;51.022;6.818;2023-06-24T13:29:22;4.38;;;3.03;;
6406;SDS011;3236;51.022;6.818;2023-06-24T13:31:49;4.13;;;3.15;;
6406;SDS011;3236;51.022;6.818;2023-06-24T13:34:16;4.32;;;2.63;;
6406;SDS011;3236;51.022;6.818;2023-06-24T13:36:43;3.90;;;2.72;;
6406;SDS011;3236;51.022;6.818;2023-06-24T13:39:10;4.18;;;2.85;;
6406;SDS011;3236;51.022;6.818;2023-06-24T13:41:45;4.80;;;2.97;;
6406;SDS011;3236;51.022;6.818;2023-06-24T13:44:13;7.00;;;3.00;;
6406;SDS011;3236;51.022;6.818;2023-06-24T13:46:40;4.30;;;2.65;;
6406;SDS011;3236;51.022;6.818;2023-06-24T13:49:07;6.20;;;2.65;;
6406;SDS011;3236;51.022;6.818;2023-06-24T13:51:34;4.10;;;2.67;;
6406;SDS011;3236;51.022;6.818;2023-06-24T13:54:01;4.20;;;2.25;;
6406;SDS011;3236;51.022;6.818;2023-06-24T13:56:30;3.80;;;2.80;;
6406;SDS011;3236;51.022;6.818;2023-06-24T13:58:59;4.20;;;2.60;;
6406;SDS011;3236;51.022;6.818;2023-06-24T14:01:26;3.10;;;2.45;;
6406;SDS011;3236;51.022;6.818;2023-06-24T14:03:54;4.43;;;2.40;;
6406;SDS011;3236;51.022;6.818;2023-06-24T14:06:22;3.10;;;2.53;;
6406;SDS011;3236;51.022;6.818;2023-06-24T14:08:50;4.25;;;2.53;;
6406;SDS011;3236;51.022;6.818;2023-06-24T14:11:18;3.95;;;2.53;;
6406;SDS011;3236;51.022;6.818;2023-06-24T14:13:45;3.67;;;2.50;;
6406;SDS011;3236;51.022;6.818;2023-06-24T14:16:13;2.63;;;2.10;;
6406;SDS011;3236;51.022;6.818;2023-06-24T14:18:40;3.78;;;2.28;;
6406;SDS011;3236;51.022;6.818;2023-06-24T14:21:08;4.80;;;2.30;;
6406;SDS011;3236;51.022;6.818;2023-06-24T14:23:35;5.97;;;2.53;;
6406;SDS011;3236;51.022;6.818;2023-06-24T14:26:02;16.90;;;2.92;;
6406;SDS011;3236;51.022;6.818;2023-06-24T14:28:29;4.30;;;2.33;;
6406;SDS011;3236;51.022;6.818;2023-06-24T14:30:57;3.65;;;2.42;;
6406;SDS011;3236;51.022;6.818;2023-06-24T14:33:25;5.03;;;2.33;;
6406;SDS011;3236;51.022;6.818;2023-06-24T14:35:52;4.68;;;2.15;;
6406;SDS011;3236;51.022;6.818;2023-06-24T14:38:19;5.63;;;2.10;;
6406;SDS011;3236;51.022;6.818;2023-06-24T14:40:46;4.78;;;1.98;;
6406;SDS011;3236;51.022;6.818;2023-06-24T14:43:13;3.92;;;2.58;;
6406;SDS011;3236;51.022;6.818;2023-06-24T14:45:40;3.95;;;2.42;;
6406;SDS011;3236;51.022;6.818;2023-06-24T14:48:07;7.00;;;2.75;;
6406;SDS011;3236;51.022;6.818;2023-06-24T14:50:36;3.95;;;1.98;;
6406;SDS011;3236;51.022;6.818;2023-06-24T14:53:04;3.67;;;2.13;;
6406;SDS011;3236;51.022;6.818;2023-06-24T14:55:31;3.30;;;2.25;;
6406;SDS011;3236;51.022;6.818;2023-06-24T14:57:59;4.63;;;2.45;;
6406;SDS011;3236;51.022;6.818;2023-06-24T15:00:26;3.33;;;2.22;;
6406;SDS011;3236;51.022;6.818;2023-06-24T15:02:54;4.68;;;2.75;;
6406;SDS011;3236;51.022;6.818;2023-06-24T15:05:21;3.13;;;2.58;;
6406;SDS011;3236;51.022;6.818;2023-06-24T15:07:49;4.05;;;2.45;;
6406;SDS011;3236;51.022;6.818;2023-06-24T15:10:16;2.78;;;2.40;;
6406;SDS011;3236;51.022;6.818;2023-06-24T15:12:43;4.28;;;2.20;;
6406;SDS011;3236;51.022;6.818;2023-06-24T15:15:11;3.72;;;2.20;;
6406;SDS011;3236;51.022;6.818;2023-06-24T15:17:38;3.53;;;2.20;;
6406;SDS011;3236;51.022;6.818;2023-06-24T15:20:15;2.88;;;2.20;;